createdAt,value
2018-09-19T00:00:47.448Z,17.51
2018-09-19T00:01:47.787Z,17.48
2018-09-19T00:02:47.129Z,17.45
2018-09-19T00:03:47.230Z,17.46
2018-09-19T00:04:47.442Z,17.46
2018-09-19T00:05:47.736Z,17.44
2018-09-19T00:06:46.913Z,17.41
2018-09-19T00:07:47.092Z,17.39
2018-09-19T00:08:48.022Z,17.36
2018-09-19T00:09:47.272Z,17.33
2018-09-19T00:10:47.783Z,17.27
2018-09-19T00:11:47.187Z,17.24
2018-09-19T00:12:47.225Z,17.23
2018-09-19T00:13:47.691Z,17.23
2018-09-19T00:14:46.894Z,17.19
2018-09-19T00:15:47.244Z,17.20
2018-09-19T00:16:47.205Z,17.16
2018-09-19T00:17:47.221Z,17.14
2018-09-19T00:18:47.502Z,17.12
2018-09-19T00:19:47.744Z,17.09
2018-09-19T00:21:08.220Z,17.06
2018-09-19T00:22:08.602Z,17.05
2018-09-19T00:23:08.894Z,17.02
2018-09-19T00:24:29.905Z,17.02
2018-09-19T00:25:30.072Z,16.96
2018-09-19T00:26:30.278Z,16.93
2018-09-19T00:27:30.492Z,16.90
2018-09-19T00:28:30.739Z,16.90
2018-09-19T00:29:30.049Z,16.87
2018-09-19T00:30:51.226Z,16.86
2018-09-19T00:31:51.270Z,16.86
2018-09-19T00:32:51.680Z,16.86
2018-09-19T00:33:52.135Z,16.86
2018-09-19T00:34:52.584Z,16.84
2018-09-19T00:35:51.728Z,16.86
2018-09-19T00:36:51.962Z,16.84
2018-09-19T00:37:51.340Z,16.87
2018-09-19T00:38:51.619Z,16.86
2018-09-19T00:39:51.805Z,16.86
2018-09-19T00:40:51.896Z,16.83
2018-09-19T00:41:51.312Z,16.79
2018-09-19T00:42:51.521Z,16.76
2018-09-19T00:43:51.974Z,16.74
2018-09-19T00:44:51.221Z,16.74
2018-09-19T00:45:51.631Z,16.71
2018-09-19T00:46:51.755Z,16.74
2018-09-19T00:47:51.269Z,16.74
2018-09-19T00:49:12.696Z,16.71
2018-09-19T00:50:13.144Z,16.69
2018-09-19T00:51:13.573Z,16.68
2018-09-19T00:52:13.742Z,16.68
2018-09-19T00:52:46.946Z,16.69
2018-09-19T00:53:47.101Z,16.69
2018-09-19T00:54:47.209Z,16.65
2018-09-19T00:55:47.585Z,16.68
2018-09-19T00:56:47.737Z,16.66
2018-09-19T00:58:07.989Z,16.60
2018-09-19T00:59:08.395Z,16.58
2018-09-19T01:00:09.870Z,16.57
2018-09-19T01:01:08.112Z,16.56
2018-09-19T01:02:08.498Z,16.54
2018-09-19T01:03:08.779Z,16.51
2018-09-19T01:04:08.005Z,16.49
2018-09-19T01:05:08.416Z,16.47
2018-09-19T01:06:08.715Z,16.49
2018-09-19T01:07:07.945Z,16.47
2018-09-19T01:08:07.984Z,16.46
2018-09-19T01:09:08.346Z,16.46
2018-09-19T01:10:08.555Z,16.43
2018-09-19T01:11:08.819Z,16.43
2018-09-19T01:12:08.117Z,16.46
2018-09-19T01:13:08.306Z,16.43
2018-09-19T01:14:08.501Z,16.43
2018-09-19T01:15:08.439Z,16.43
2018-09-19T01:16:08.856Z,16.43
2018-09-19T01:17:08.504Z,16.43
2018-09-19T01:18:08.520Z,16.42
2018-09-19T01:19:08.706Z,16.43
2018-09-19T01:20:08.142Z,16.42
2018-09-19T01:21:08.373Z,16.43
2018-09-19T01:22:08.533Z,16.46
2018-09-19T01:23:08.828Z,16.43
2018-09-19T01:24:08.085Z,16.41
2018-09-19T01:25:08.225Z,16.39
2018-09-19T01:26:08.594Z,16.38
2018-09-19T01:27:07.996Z,16.39
2018-09-19T01:28:08.224Z,16.41
2018-09-19T01:29:08.430Z,16.41
2018-09-19T01:30:08.685Z,16.41
2018-09-19T01:31:07.865Z,16.42
2018-09-19T01:32:08.107Z,16.42
2018-09-19T01:33:29.475Z,16.42
2018-09-19T01:34:29.548Z,16.43
2018-09-19T01:35:29.934Z,16.43
2018-09-19T01:36:30.108Z,16.47
2018-09-19T01:37:30.286Z,16.49
2018-09-19T01:38:29.629Z,16.49
2018-09-19T01:39:29.985Z,16.50
2018-09-19T01:40:30.121Z,16.49
2018-09-19T01:41:29.597Z,16.47
2018-09-19T01:42:29.776Z,16.43
2018-09-19T01:43:29.934Z,16.42
2018-09-19T01:44:30.108Z,16.41
2018-09-19T01:45:30.378Z,16.41
2018-09-19T01:46:29.575Z,16.41
2018-09-19T01:47:29.773Z,16.39
2018-09-19T01:48:29.982Z,16.41
2018-09-19T01:49:29.936Z,16.41
2018-09-19T01:51:12.081Z,16.42
2018-09-19T01:52:12.465Z,16.39
2018-09-19T01:53:12.727Z,16.39
2018-09-19T01:54:12.897Z,16.39
2018-09-19T01:55:12.349Z,16.39
2018-09-19T01:56:12.551Z,16.41
2018-09-19T01:57:12.977Z,16.42
2018-09-19T01:58:12.152Z,16.42
2018-09-19T01:59:12.302Z,16.42
2018-09-19T02:00:12.664Z,16.42
2018-09-19T02:01:12.133Z,16.42
2018-09-19T02:02:12.298Z,16.42
2018-09-19T02:03:12.503Z,16.42
2018-09-19T02:04:12.764Z,16.41
2018-09-19T02:05:12.842Z,16.39
2018-09-19T02:06:13.090Z,16.38
2018-09-19T02:07:12.255Z,16.39
2018-09-19T02:08:12.363Z,16.39
2018-09-19T02:09:12.362Z,16.38
2018-09-19T02:10:12.545Z,16.35
2018-09-19T02:11:12.792Z,16.36
2018-09-19T02:12:12.172Z,16.35
2018-09-19T02:13:12.483Z,16.32
2018-09-19T02:14:12.415Z,16.29
2018-09-19T02:15:33.779Z,16.31
2018-09-19T02:16:34.176Z,16.32
2018-09-19T02:17:34.497Z,16.32
2018-09-19T02:18:33.744Z,16.32
2018-09-19T02:19:33.983Z,16.31
2018-09-19T02:20:34.253Z,16.29
2018-09-19T02:21:34.374Z,16.28
2018-09-19T02:22:33.671Z,16.29
2018-09-19T02:23:33.895Z,16.32
2018-09-19T02:24:34.146Z,16.31
2018-09-19T02:25:34.645Z,16.32
2018-09-19T02:26:34.028Z,16.33
2018-09-19T02:27:34.288Z,16.33
2018-09-19T02:28:34.556Z,16.33
2018-09-19T02:29:34.698Z,16.35
2018-09-19T02:30:33.931Z,16.35
2018-09-19T02:31:34.709Z,16.35
2018-09-19T02:32:33.934Z,16.33
2018-09-19T02:33:34.386Z,16.36
2018-09-19T02:34:34.600Z,16.36
2018-09-19T02:35:33.676Z,16.36
2018-09-19T02:36:33.994Z,16.38
2018-09-19T02:37:34.179Z,16.38
2018-09-19T02:38:34.557Z,16.38
2018-09-19T02:39:33.699Z,16.39
2018-09-19T02:40:34.126Z,16.41
2018-09-19T02:41:34.406Z,16.43
2018-09-19T02:42:34.603Z,16.43
2018-09-19T02:43:33.901Z,16.42
2018-09-19T02:44:34.235Z,16.39
2018-09-19T02:45:34.324Z,16.39
2018-09-19T02:46:34.473Z,16.39
2018-09-19T02:47:34.508Z,16.39
2018-09-19T02:48:34.006Z,16.39
2018-09-19T02:49:34.273Z,16.39
2018-09-19T02:50:34.703Z,16.39
2018-09-19T02:51:33.868Z,16.38
2018-09-19T02:52:34.091Z,16.36
2018-09-19T02:53:34.573Z,16.36
2018-09-19T02:54:33.822Z,16.35
2018-09-19T02:55:34.798Z,16.36
2018-09-19T02:56:34.222Z,16.38
2018-09-19T02:57:34.455Z,16.38
2018-09-19T02:58:36.819Z,16.38
2018-09-19T02:59:34.098Z,16.36
2018-09-19T03:00:34.814Z,16.36
2018-09-19T03:01:34.106Z,16.38
2018-09-19T03:02:34.461Z,16.38
2018-09-19T03:03:33.827Z,16.36
2018-09-19T03:04:34.020Z,16.39
2018-09-19T03:05:34.248Z,16.39
2018-09-19T03:06:34.562Z,16.36
2018-09-19T03:07:34.076Z,16.35
2018-09-19T03:08:34.457Z,16.33
2018-09-19T03:09:33.806Z,16.32
2018-09-19T03:10:33.979Z,16.29
2018-09-19T03:11:34.264Z,16.29
2018-09-19T03:12:34.580Z,16.24
2018-09-19T03:13:33.720Z,16.21
2018-09-19T03:14:33.897Z,16.21
2018-09-19T03:15:34.360Z,16.23
2018-09-19T03:16:33.565Z,16.20
2018-09-19T03:17:33.980Z,16.17
2018-09-19T03:18:34.577Z,16.15
2018-09-19T03:19:33.954Z,16.12
2018-09-19T03:20:34.214Z,16.09
2018-09-19T03:21:55.259Z,16.08
2018-09-19T03:22:55.620Z,16.05
2018-09-19T03:23:55.840Z,16.01
2018-09-19T03:24:56.053Z,16.01
2018-09-19T03:25:56.497Z,15.98
2018-09-19T03:26:55.648Z,15.95
2018-09-19T03:27:55.931Z,15.97
2018-09-19T03:28:56.408Z,15.97
2018-09-19T03:29:55.635Z,15.95
2018-09-19T03:30:55.935Z,15.92
2018-09-19T03:31:56.500Z,15.92
2018-09-19T03:32:55.880Z,15.90
2018-09-19T03:33:56.289Z,15.90
2018-09-19T03:34:55.625Z,15.90
2018-09-19T03:35:55.855Z,15.90
2018-09-19T03:36:56.130Z,15.90
2018-09-19T03:37:55.603Z,15.83
2018-09-19T03:38:55.818Z,15.82
2018-09-19T03:39:56.112Z,15.79
2018-09-19T03:40:56.382Z,15.79
2018-09-19T03:41:55.765Z,15.76
2018-09-19T03:42:56.170Z,15.73
2018-09-19T03:43:56.417Z,15.73
2018-09-19T03:44:55.801Z,15.75
2018-09-19T03:45:56.088Z,15.73
2018-09-19T03:46:55.607Z,15.68
2018-09-19T03:47:56.004Z,15.67
2018-09-19T03:48:56.239Z,15.64
2018-09-19T03:49:55.426Z,15.59
2018-09-19T03:50:55.476Z,15.57
2018-09-19T03:51:55.666Z,15.54
2018-09-19T03:52:55.855Z,15.52
2018-09-19T03:53:56.271Z,15.51
2018-09-19T03:54:55.475Z,15.46
2018-09-19T03:55:55.680Z,15.42
2018-09-19T03:56:55.946Z,15.40
2018-09-19T03:57:56.387Z,15.42
2018-09-19T03:58:55.776Z,15.43
2018-09-19T03:59:56.173Z,15.40
2018-09-19T04:00:55.508Z,15.42
2018-09-19T04:01:55.608Z,15.40
2018-09-19T04:02:55.963Z,15.40
2018-09-19T04:03:56.433Z,15.39
2018-09-19T04:04:55.703Z,15.35
2018-09-19T04:05:55.935Z,15.33
2018-09-19T04:06:56.320Z,15.31
2018-09-19T04:07:55.485Z,15.31
2018-09-19T04:08:55.668Z,15.31
2018-09-19T04:09:55.981Z,15.29
2018-09-19T04:10:56.064Z,15.28
2018-09-19T04:12:17.326Z,15.35
2018-09-19T04:13:17.464Z,15.31
2018-09-19T04:14:39.064Z,15.29
2018-09-19T04:15:39.459Z,15.28
2018-09-19T04:16:39.760Z,15.27
2018-09-19T04:17:39.072Z,15.27
2018-09-19T04:18:39.264Z,15.24
2018-09-19T04:19:39.290Z,15.22
2018-09-19T04:20:39.876Z,15.21
2018-09-19T04:21:39.095Z,15.18
2018-09-19T04:22:39.268Z,15.15
2018-09-19T04:23:39.433Z,15.15
2018-09-19T04:24:39.780Z,15.15
2018-09-19T04:25:38.737Z,15.18
2018-09-19T04:26:39.032Z,15.17
2018-09-19T04:27:39.049Z,15.18
2018-09-19T04:28:39.141Z,15.17
2018-09-19T04:29:39.494Z,15.19
2018-09-19T04:30:38.892Z,15.19
2018-09-19T04:31:39.401Z,15.19
2018-09-19T04:32:39.491Z,15.19
2018-09-19T04:33:38.913Z,15.18
2018-09-19T04:34:39.043Z,15.18
2018-09-19T04:35:39.192Z,15.15
2018-09-19T04:36:39.236Z,15.17
2018-09-19T04:37:39.382Z,15.18
2018-09-19T04:38:39.555Z,15.17
2018-09-19T04:39:39.718Z,15.19
2018-09-19T04:40:39.508Z,15.19
2018-09-19T04:41:42.738Z,15.18
2018-09-19T04:42:38.644Z,15.17
2018-09-19T04:43:38.944Z,15.15
2018-09-19T04:44:39.241Z,15.15
2018-09-19T04:45:39.732Z,15.11
2018-09-19T04:46:39.101Z,15.14
2018-09-19T04:47:39.574Z,15.11
2018-09-19T04:48:39.745Z,15.15
2018-09-19T04:49:38.884Z,15.17
2018-09-19T04:50:39.054Z,15.15
2018-09-19T04:51:39.584Z,15.17
2018-09-19T04:52:39.129Z,15.17
2018-09-19T04:53:39.366Z,15.18
2018-09-19T04:54:39.350Z,15.18
2018-09-19T04:55:38.952Z,15.19
2018-09-19T04:56:39.436Z,15.15
2018-09-19T04:57:41.421Z,15.11
2018-09-19T04:58:38.700Z,15.10
2018-09-19T04:59:39.167Z,15.07
2018-09-19T05:00:39.295Z,15.09
2018-09-19T05:01:39.520Z,15.09
2018-09-19T05:02:38.773Z,15.06
2018-09-19T05:03:39.076Z,15.10
2018-09-19T05:04:39.350Z,15.11
2018-09-19T05:05:49.822Z,15.10
2018-09-19T05:06:39.145Z,15.09
2018-09-19T05:07:39.610Z,15.09
2018-09-19T05:08:39.112Z,15.14
2018-09-19T05:09:39.354Z,15.14
2018-09-19T05:10:38.729Z,15.15
2018-09-19T05:11:39.243Z,15.15
2018-09-19T05:12:39.541Z,15.15
2018-09-19T05:13:39.929Z,15.15
2018-09-19T05:14:39.343Z,15.15
2018-09-19T05:15:39.634Z,15.17
2018-09-19T05:16:38.843Z,15.18
2018-09-19T05:17:39.084Z,15.21
2018-09-19T05:18:39.444Z,15.19
2018-09-19T05:19:39.855Z,15.25
2018-09-19T05:20:39.444Z,15.25
2018-09-19T05:21:59.775Z,15.25
2018-09-19T05:23:00.200Z,15.25
2018-09-19T05:24:00.390Z,15.25
2018-09-19T05:24:59.717Z,15.28
2018-09-19T05:26:00.146Z,15.28
2018-09-19T05:27:00.667Z,15.31
2018-09-19T05:28:00.551Z,15.33
2018-09-19T05:28:59.863Z,15.33
2018-09-19T05:30:00.226Z,15.35
2018-09-19T05:31:00.433Z,15.36
2018-09-19T05:32:00.408Z,15.35
2018-09-19T05:33:00.576Z,15.37
2018-09-19T05:34:00.277Z,15.42
2018-09-19T05:35:00.881Z,15.42
2018-09-19T05:36:00.239Z,15.43
2018-09-19T05:37:00.896Z,15.43
2018-09-19T05:38:00.423Z,15.42
2018-09-19T05:39:00.652Z,15.43
2018-09-19T05:40:00.034Z,15.43
2018-09-19T05:41:00.221Z,15.43
2018-09-19T05:42:00.538Z,15.46
2018-09-19T05:42:59.864Z,15.47
2018-09-19T05:44:00.237Z,15.49
2018-09-19T05:45:00.628Z,15.49
2018-09-19T05:45:59.998Z,15.51
2018-09-19T05:47:00.457Z,15.52
2018-09-19T05:47:59.956Z,15.52
2018-09-19T05:49:00.269Z,15.52
2018-09-19T05:50:00.480Z,15.52
2018-09-19T05:50:59.640Z,15.52
2018-09-19T05:52:00.008Z,15.52
2018-09-19T05:53:00.481Z,15.55
2018-09-19T05:53:59.857Z,15.54
2018-09-19T05:55:00.291Z,15.58
2018-09-19T05:56:00.658Z,15.59
2018-09-19T05:57:00.130Z,15.59
2018-09-19T05:58:00.496Z,15.62
2018-09-19T05:59:01.003Z,15.65
2018-09-19T06:00:00.125Z,15.68
2018-09-19T06:01:00.506Z,15.68
2018-09-19T06:02:00.829Z,15.73
2018-09-19T06:03:00.275Z,15.77
2018-09-19T06:04:00.748Z,15.80
2018-09-19T06:05:00.308Z,15.82
2018-09-19T06:06:00.703Z,15.84
2018-09-19T06:06:59.987Z,15.90
2018-09-19T06:08:00.387Z,15.91
2018-09-19T06:08:59.796Z,15.94
2018-09-19T06:10:00.127Z,15.98
2018-09-19T06:11:00.548Z,16.04
2018-09-19T06:11:59.944Z,16.10
2018-09-19T06:13:00.447Z,16.16
2018-09-19T06:13:59.801Z,16.26
2018-09-19T06:15:00.181Z,16.38
2018-09-19T06:16:00.700Z,16.46
2018-09-19T06:16:59.913Z,16.57
2018-09-19T06:18:00.217Z,16.75
2018-09-19T06:19:00.657Z,16.94
2018-09-19T06:19:59.910Z,17.16
2018-09-19T06:21:00.437Z,17.44
2018-09-19T06:22:00.086Z,17.68
2018-09-19T06:23:00.253Z,17.89
2018-09-19T06:24:00.488Z,18.03
2018-09-19T06:24:59.675Z,18.16
2018-09-19T06:26:00.048Z,18.33
2018-09-19T06:27:00.505Z,18.52
2018-09-19T06:28:00.110Z,18.56
2018-09-19T06:29:00.471Z,18.66
2018-09-19T06:29:59.752Z,18.77
2018-09-19T06:31:00.020Z,18.81
2018-09-19T06:32:00.600Z,18.89
2018-09-19T06:33:00.229Z,18.95
2018-09-19T06:33:59.836Z,19.00
2018-09-19T06:35:00.293Z,19.15
2018-09-19T06:36:00.667Z,19.31
2018-09-19T06:37:00.197Z,19.36
2018-09-19T06:38:00.490Z,19.52
2018-09-19T06:38:59.723Z,19.70
2018-09-19T06:40:00.245Z,19.94
2018-09-19T06:41:00.703Z,20.18
2018-09-19T06:42:00.426Z,20.29
2018-09-19T06:42:59.748Z,20.51
2018-09-19T06:44:00.110Z,20.78
2018-09-19T06:45:00.503Z,21.02
2018-09-19T06:46:01.058Z,21.11
2018-09-19T06:47:00.573Z,21.15
2018-09-19T06:48:00.069Z,21.25
2018-09-19T06:49:22.515Z,21.45
2018-09-19T06:50:22.422Z,21.58
2018-09-19T06:51:22.727Z,21.91
2018-09-19T06:52:22.234Z,22.04
2018-09-19T06:53:22.735Z,22.15
2018-09-19T06:54:22.124Z,22.38
2018-09-19T06:55:22.574Z,22.48
2018-09-19T06:56:22.833Z,22.69
2018-09-19T06:57:22.215Z,22.85
2018-09-19T06:58:22.508Z,22.85
2018-09-19T06:59:21.770Z,23.02
2018-09-19T07:00:22.328Z,23.15
2018-09-19T07:01:23.352Z,23.15
2018-09-19T07:02:22.949Z,23.03
2018-09-19T07:03:22.000Z,22.93
2018-09-19T07:04:22.401Z,23.17
2018-09-19T07:05:21.771Z,23.39
2018-09-19T07:06:22.212Z,23.55
2018-09-19T07:07:22.432Z,23.74
2018-09-19T07:08:21.931Z,23.99
2018-09-19T07:09:22.137Z,24.11
2018-09-19T07:10:22.797Z,24.24
2018-09-19T07:11:22.365Z,24.42
2018-09-19T07:12:22.730Z,24.47
2018-09-19T07:13:22.190Z,24.60
2018-09-19T07:14:43.775Z,24.76
2018-09-19T07:15:44.056Z,24.92
2018-09-19T07:16:44.593Z,25.11
2018-09-19T07:17:43.868Z,25.29
2018-09-19T07:18:44.352Z,25.36
2018-09-19T07:19:43.816Z,25.41
2018-09-19T07:20:44.137Z,25.50
2018-09-19T07:21:44.566Z,25.38
2018-09-19T07:22:43.905Z,25.46
2018-09-19T07:23:44.522Z,25.65
2018-09-19T07:24:44.973Z,25.81
2018-09-19T07:25:44.426Z,26.02
2018-09-19T07:26:43.876Z,26.25
2018-09-19T07:27:43.879Z,26.47
2018-09-19T07:28:44.318Z,26.56
2018-09-19T07:29:43.668Z,26.78
2018-09-19T07:30:44.033Z,26.55
2018-09-19T07:31:44.607Z,26.56
2018-09-19T07:32:44.295Z,26.68
2018-09-19T07:33:45.127Z,26.66
2018-09-19T07:34:43.810Z,26.45
2018-09-19T07:35:43.945Z,26.29
2018-09-19T07:36:44.525Z,26.22
2018-09-19T07:37:43.990Z,26.29
2018-09-19T07:38:44.611Z,26.15
2018-09-19T07:39:43.947Z,26.18
2018-09-19T07:40:44.166Z,26.25
2018-09-19T07:41:44.594Z,26.45
2018-09-19T07:42:44.635Z,26.74
2018-09-19T07:43:43.993Z,27.00
2018-09-19T07:44:44.567Z,27.25
2018-09-19T07:45:43.698Z,27.44
2018-09-19T07:46:44.208Z,27.64
2018-09-19T07:47:43.827Z,27.77
2018-09-19T07:48:44.062Z,27.98
2018-09-19T07:49:44.536Z,27.96
2018-09-19T07:50:43.728Z,28.05
2018-09-19T07:51:44.153Z,28.20
2018-09-19T07:52:44.507Z,28.33
2018-09-19T07:53:43.886Z,27.92
2018-09-19T07:54:44.296Z,27.77
2018-09-19T07:55:43.835Z,28.00
2018-09-19T07:56:44.051Z,28.12
2018-09-19T07:57:44.434Z,28.20
2018-09-19T07:58:43.814Z,28.17
2018-09-19T07:59:44.249Z,28.07
2018-09-19T08:00:43.794Z,28.27
2018-09-19T08:01:44.101Z,28.57
2018-09-19T08:02:43.599Z,28.57
2018-09-19T08:03:43.896Z,28.62
2018-09-19T08:04:44.180Z,28.63
2018-09-19T08:05:43.659Z,28.74
2018-09-19T08:06:43.797Z,28.69
2018-09-19T08:07:44.395Z,28.70
2018-09-19T08:08:43.889Z,28.81
2018-09-19T08:09:44.211Z,28.93
2018-09-19T08:10:43.691Z,28.81
2018-09-19T08:11:44.088Z,28.72
2018-09-19T08:12:44.480Z,28.85
2018-09-19T08:13:43.770Z,28.54
2018-09-19T08:14:44.046Z,28.70
2018-09-19T08:15:44.461Z,28.85
2018-09-19T08:16:44.731Z,28.96
2018-09-19T08:17:44.106Z,29.07
2018-09-19T08:18:44.431Z,28.96
2018-09-19T08:19:43.979Z,28.97
2018-09-19T08:20:44.477Z,29.23
2018-09-19T08:21:43.982Z,29.49
2018-09-19T08:22:44.281Z,29.71
2018-09-19T08:23:43.912Z,29.91
2018-09-19T08:24:44.205Z,30.02
2018-09-19T08:25:43.648Z,30.02
2018-09-19T08:26:43.969Z,30.00
2018-09-19T08:27:49.331Z,30.16
2018-09-19T08:29:05.032Z,30.19
2018-09-19T08:30:06.930Z,30.40
2018-09-19T08:31:05.500Z,30.34
2018-09-19T08:32:06.060Z,30.19
2018-09-19T08:33:05.598Z,30.27
2018-09-19T08:34:06.080Z,30.27
2018-09-19T08:35:05.455Z,30.18
2018-09-19T08:36:05.874Z,30.35
2018-09-19T08:37:47.345Z,30.70
2018-09-19T08:38:47.759Z,30.72
2018-09-19T08:39:48.502Z,30.84
2018-09-19T08:40:47.909Z,30.72
2018-09-19T08:41:47.475Z,30.81
2018-09-19T08:43:09.428Z,30.91
2018-09-19T08:44:09.750Z,30.81
2018-09-19T08:45:31.192Z,30.94
2018-09-19T08:46:32.341Z,30.92
2018-09-19T08:47:32.414Z,30.83
2018-09-19T08:48:31.795Z,30.21
2018-09-19T08:49:31.144Z,29.82
2018-09-19T08:50:31.902Z,30.06
2018-09-19T08:51:31.161Z,29.95
2018-09-19T08:52:31.767Z,30.28
2018-09-19T08:53:31.107Z,30.66
2018-09-19T08:54:31.627Z,30.90
2018-09-19T08:55:32.527Z,30.77
2018-09-19T08:56:32.507Z,30.61
2018-09-19T08:57:31.938Z,30.62
2018-09-19T08:58:52.587Z,30.43
2018-09-19T08:59:53.092Z,30.34
2018-09-19T09:00:52.497Z,30.18
2018-09-19T09:01:52.816Z,30.43
2018-09-19T09:02:53.170Z,30.65
2018-09-19T09:03:53.107Z,30.99
2018-09-19T09:04:53.488Z,31.25
2018-09-19T09:05:52.602Z,31.17
2018-09-19T09:06:53.080Z,31.06
2018-09-19T09:07:53.394Z,31.27
2018-09-19T09:08:52.638Z,31.46
2018-09-19T09:09:53.514Z,31.90
2018-09-19T09:10:53.407Z,32.29
2018-09-19T09:11:52.566Z,31.78
2018-09-19T09:12:52.929Z,31.64
2018-09-19T09:13:53.292Z,31.74
2018-09-19T09:14:52.470Z,31.47
2018-09-19T09:15:52.849Z,31.33
2018-09-19T09:16:53.408Z,31.18
2018-09-19T09:17:52.711Z,30.84
2018-09-19T09:18:53.013Z,30.62
2018-09-19T09:19:53.642Z,30.70
2018-09-19T09:20:53.211Z,31.00
2018-09-19T09:21:52.601Z,31.34
2018-09-19T09:22:53.106Z,31.47
2018-09-19T09:23:52.632Z,31.56
2018-09-19T09:24:52.875Z,31.56
2018-09-19T09:25:53.184Z,31.61
2018-09-19T09:26:53.184Z,31.65
2018-09-19T09:27:52.671Z,31.71
2018-09-19T09:28:52.681Z,31.84
2018-09-19T09:29:53.051Z,32.21
2018-09-19T09:31:14.481Z,32.16
2018-09-19T09:33:00.078Z,32.55
2018-09-19T09:34:00.144Z,32.55
2018-09-19T09:35:00.275Z,32.36
2018-09-19T09:36:00.417Z,32.37
2018-09-19T09:37:00.694Z,32.40
2018-09-19T09:38:00.135Z,32.38
2018-09-19T09:39:00.781Z,32.45
2018-09-19T09:40:00.045Z,32.33
2018-09-19T09:41:00.421Z,32.37
2018-09-19T09:42:00.661Z,32.77
2018-09-19T09:43:00.252Z,32.97
2018-09-19T09:44:00.427Z,32.68
2018-09-19T09:45:00.791Z,32.89
2018-09-19T09:46:00.299Z,33.15
2018-09-19T09:47:21.838Z,33.57
2018-09-19T09:48:22.031Z,33.81
2018-09-19T09:49:22.315Z,34.20
2018-09-19T09:50:22.761Z,34.50
2018-09-19T09:51:22.313Z,34.80
2018-09-19T09:52:22.671Z,35.11
2018-09-19T09:53:22.468Z,35.24
2018-09-19T09:54:21.910Z,35.12
2018-09-19T09:55:22.421Z,35.00
2018-09-19T09:56:22.606Z,35.31
2018-09-19T09:57:22.104Z,35.22
2018-09-19T09:58:22.539Z,35.26
2018-09-19T09:59:22.063Z,35.11
2018-09-19T10:00:43.528Z,34.70
2018-09-19T10:01:43.811Z,34.55
2018-09-19T10:02:44.811Z,33.92
2018-09-19T10:03:44.421Z,33.76
2018-09-19T10:05:04.799Z,33.80
2018-09-19T10:06:05.207Z,34.01
2018-09-19T10:07:26.791Z,33.68
2018-09-19T10:08:27.208Z,33.61
2018-09-19T10:09:27.637Z,33.61
2018-09-19T10:10:26.988Z,33.87
2018-09-19T10:11:27.325Z,34.17
2018-09-19T10:12:27.618Z,34.27
2018-09-19T10:13:27.021Z,34.24
2018-09-19T10:14:27.237Z,34.52
2018-09-19T10:15:27.665Z,34.78
2018-09-19T10:16:26.905Z,34.88
2018-09-19T10:17:27.002Z,34.70
2018-09-19T10:18:27.319Z,34.95
2018-09-19T10:19:26.571Z,35.23
2018-09-19T10:20:27.052Z,35.52
2018-09-19T10:21:27.400Z,35.68
2018-09-19T10:22:26.582Z,35.30
2018-09-19T10:23:26.914Z,34.86
2018-09-19T10:24:27.180Z,34.66
2018-09-19T10:25:48.620Z,34.62
2018-09-19T10:26:49.058Z,34.50
2018-09-19T10:27:49.325Z,34.43
2018-09-19T10:28:48.812Z,34.17
2018-09-19T10:29:49.486Z,33.98
2018-09-19T10:30:49.206Z,34.27
2018-09-19T10:31:48.583Z,34.42
2018-09-19T10:32:48.972Z,34.50
2018-09-19T10:33:49.251Z,34.81
2018-09-19T10:34:48.611Z,34.77
2018-09-19T10:35:48.924Z,34.38
2018-09-19T10:36:49.543Z,34.52
2018-09-19T10:37:49.956Z,34.50
2018-09-19T10:38:49.140Z,34.39
2018-09-19T10:39:48.279Z,34.58
2018-09-19T10:40:48.482Z,34.80
2018-09-19T10:41:48.820Z,34.60
2018-09-19T10:42:49.183Z,34.33
2018-09-19T10:43:48.639Z,33.61
2018-09-19T10:44:49.189Z,32.64
2018-09-19T10:45:48.523Z,32.04
2018-09-19T10:46:48.881Z,31.55
2018-09-19T10:47:49.175Z,31.29
2018-09-19T10:48:49.189Z,31.58
2018-09-19T10:49:48.500Z,32.08
2018-09-19T10:50:48.863Z,31.87
2018-09-19T10:51:49.186Z,31.61
2018-09-19T10:52:48.495Z,31.36
2018-09-19T10:53:48.777Z,30.91
2018-09-19T10:54:49.072Z,30.50
2018-09-19T10:55:48.733Z,30.73
2018-09-19T10:56:49.212Z,31.05
2018-09-19T10:57:54.665Z,30.68
2018-09-19T10:58:49.261Z,30.13
2018-09-19T10:59:48.385Z,30.48
2018-09-19T11:00:48.617Z,30.94
2018-09-19T11:01:48.936Z,31.12
2018-09-19T11:02:49.325Z,31.43
2018-09-19T11:03:48.618Z,31.64
2018-09-19T11:04:48.707Z,31.77
2018-09-19T11:05:49.253Z,31.22
2018-09-19T11:06:48.787Z,31.10
2018-09-19T11:07:49.174Z,30.78
2018-09-19T11:08:49.777Z,30.68
2018-09-19T11:09:49.029Z,30.92
2018-09-19T11:10:48.501Z,31.40
2018-09-19T11:11:48.837Z,32.04
2018-09-19T11:12:49.340Z,32.58
2018-09-19T11:13:48.611Z,32.90
2018-09-19T11:14:49.004Z,33.12
2018-09-19T11:15:49.183Z,33.08
2018-09-19T11:16:49.932Z,33.40
2018-09-19T11:17:49.347Z,33.68
2018-09-19T11:18:48.836Z,33.20
2018-09-19T11:19:49.206Z,32.64
2018-09-19T11:21:10.570Z,31.73
2018-09-19T11:22:11.118Z,31.24
2018-09-19T11:23:10.534Z,30.84
2018-09-19T11:24:10.732Z,30.65
2018-09-19T11:25:11.229Z,30.97
2018-09-19T11:26:32.920Z,30.90
2018-09-19T11:27:33.247Z,30.90
2018-09-19T11:29:17.013Z,30.50
2018-09-19T11:30:17.421Z,30.31
2018-09-19T11:31:17.684Z,30.62
2018-09-19T11:32:17.157Z,30.84
2018-09-19T11:33:20.592Z,30.57
2018-09-19T11:34:20.374Z,30.43
2018-09-19T11:35:17.828Z,30.16
2018-09-19T11:36:38.613Z,29.98
2018-09-19T11:37:40.184Z,29.78
2018-09-19T11:38:39.301Z,30.02
2018-09-19T11:39:39.674Z,30.34
2018-09-19T11:40:39.072Z,30.99
2018-09-19T11:41:38.689Z,31.70
2018-09-19T11:42:38.854Z,32.11
2018-09-19T11:43:39.390Z,31.92
2018-09-19T11:44:38.611Z,31.87
2018-09-19T11:45:38.989Z,31.93
2018-09-19T11:46:38.440Z,32.27
2018-09-19T11:47:38.548Z,32.53
2018-09-19T11:48:38.879Z,32.46
2018-09-19T11:49:39.344Z,32.75
2018-09-19T11:50:38.672Z,32.58
2018-09-19T11:51:39.071Z,32.23
2018-09-19T11:52:38.291Z,32.52
2018-09-19T11:53:59.945Z,32.89
2018-09-19T11:55:00.705Z,32.59
2018-09-19T11:56:08.445Z,32.67
2018-09-19T11:57:03.436Z,32.30
2018-09-19T11:58:03.428Z,31.94
2018-09-19T11:58:59.965Z,32.15
2018-09-19T12:00:00.350Z,32.87
2018-09-19T12:01:00.814Z,33.08
2018-09-19T12:02:00.061Z,33.58
2018-09-19T12:03:00.489Z,34.03
2018-09-19T12:04:20.992Z,34.42
2018-09-19T12:05:21.275Z,34.32
2018-09-19T12:07:03.925Z,34.60
2018-09-19T12:08:04.270Z,34.03
2018-09-19T12:09:04.710Z,33.64
2018-09-19T12:10:04.339Z,33.09
2018-09-19T12:11:07.905Z,32.51
2018-09-19T12:12:04.355Z,32.67
2018-09-19T12:13:04.806Z,32.95
2018-09-19T12:14:04.198Z,33.17
2018-09-19T12:15:05.308Z,33.43
2018-09-19T12:16:04.751Z,32.82
2018-09-19T12:17:05.412Z,32.89
2018-09-19T12:18:04.971Z,32.78
2018-09-19T12:19:04.373Z,32.73
2018-09-19T12:20:05.622Z,32.70
2018-09-19T12:21:04.117Z,32.93
2018-09-19T12:22:25.843Z,33.05
2018-09-19T12:23:26.268Z,33.40
2018-09-19T12:24:26.839Z,33.42
2018-09-19T12:25:26.234Z,33.71
2018-09-19T12:27:08.953Z,33.79
2018-09-19T12:28:09.025Z,33.57
2018-09-19T12:29:09.213Z,33.12
2018-09-19T12:30:09.591Z,33.01
2018-09-19T12:31:10.016Z,33.04
2018-09-19T12:32:09.491Z,32.85
2018-09-19T12:33:30.989Z,32.87
2018-09-19T12:34:31.503Z,33.05
2018-09-19T12:35:31.981Z,33.02
2018-09-19T12:36:31.294Z,32.49
2018-09-19T12:37:31.875Z,32.15
2018-09-19T12:38:31.461Z,32.46
2018-09-19T12:39:32.045Z,32.40
2018-09-19T12:40:31.532Z,32.59
2018-09-19T12:41:31.892Z,32.71
2018-09-19T12:42:31.016Z,32.56
2018-09-19T12:43:31.268Z,32.64
2018-09-19T12:44:53.444Z,32.27
2018-09-19T12:45:53.780Z,31.96
2018-09-19T12:46:54.019Z,32.07
2018-09-19T12:47:53.437Z,31.66
2018-09-19T12:48:53.917Z,31.58
2018-09-19T12:49:54.230Z,31.66
2018-09-19T12:50:53.480Z,31.56
2018-09-19T12:51:54.901Z,31.77
2018-09-19T12:52:54.083Z,31.85
2018-09-19T12:53:54.329Z,32.03
2018-09-19T12:54:54.668Z,32.37
2018-09-19T12:55:54.098Z,32.73
2018-09-19T12:56:53.736Z,32.64
2018-09-19T12:57:55.128Z,32.89
2018-09-19T12:58:55.135Z,33.14
2018-09-19T12:59:54.817Z,33.40
2018-09-19T13:00:54.826Z,33.43
2018-09-19T13:01:54.051Z,33.31
2018-09-19T13:03:14.856Z,33.59
2018-09-19T13:04:15.379Z,33.31
2018-09-19T13:05:15.803Z,33.22
2018-09-19T13:06:15.274Z,32.97
2018-09-19T13:07:15.457Z,32.77
2018-09-19T13:08:17.043Z,33.00